Time;durP1;ratioP1;P1;durP2;ratioP2;P2;SDS_P1;SDS_P2;PMS_P1;PMS_P2;Temp;Humidity;BMP_temperature;BMP_pressure;BME280_temperature;BME280_humidity;BME280_pressure;Samples;Min_cycle;Max_cycle;Signal;HPM_P1;HPM_P2
2023/12/17 00:01:22;;;;;;;44.22;26.85;;;;;;;6.38;100.00;103500.28;10421440;28;20064;-81
2023/12/17 00:06:22;;;;;;;45.67;26.15;;;;;;;6.37;100.00;103507.94;10470421;28;20115;-81
2023/12/17 00:11:23;;;;;;;48.03;27.23;;;;;;;6.44;100.00;103513.94;10480013;28;20116;-80
2023/12/17 00:16:25;;;;;;;43.10;23.67;;;;;;;6.45;100.00;103517.47;10495517;28;20127;-81
2023/12/17 00:21:26;;;;;;;45.58;25.52;;;;;;;6.42;100.00;103507.66;10472017;27;20036;-80
2023/12/17 00:26:26;;;;;;;45.90;23.80;;;;;;;6.44;100.00;103497.41;10525409;28;20044;-80
2023/12/17 00:31:27;;;;;;;45.45;22.88;;;;;;;6.48;100.00;103499.59;10507592;28;20132;-81
2023/12/17 00:36:27;;;;;;;50.22;25.33;;;;;;;6.50;100.00;103517.94;10503310;28;20110;-81
2023/12/17 00:41:28;;;;;;;57.60;28.17;;;;;;;6.57;100.00;103494.44;10488944;28;20510;-80
2023/12/17 00:46:28;;;;;;;43.95;24.15;;;;;;;6.57;100.00;103484.94;10485314;28;20127;-80
2023/12/17 00:51:29;;;;;;;43.97;25.63;;;;;;;6.58;100.00;103483.25;10491311;28;20186;-81
2023/12/17 00:56:30;;;;;;;41.30;26.90;;;;;;;6.57;100.00;103490.16;10461956;27;20127;-82
2023/12/17 01:01:30;;;;;;;50.40;28.05;;;;;;;6.57;100.00;103484.94;10494098;28;20178;-82
2023/12/17 01:06:30;;;;;;;45.38;26.50;;;;;;;6.57;100.00;103471.94;10489959;28;20491;-82
2023/12/17 01:11:31;;;;;;;47.85;28.08;;;;;;;6.56;100.00;103479.56;10464428;28;20080;-81
2023/12/17 01:16:32;;;;;;;47.10;27.88;;;;;;;6.57;100.00;103481.41;10492007;27;20487;-82
2023/12/17 01:21:32;;;;;;;48.67;28.08;;;;;;;6.59;100.00;103480.84;10493402;28;20052;-82
2023/12/17 01:26:34;;;;;;;44.35;24.83;;;;;;;6.57;100.00;103471.00;10487605;28;20123;-82
2023/12/17 01:31:35;;;;;;;48.70;25.48;;;;;;;6.58;100.00;103478.06;10460337;28;20169;-82
2023/12/17 01:36:35;;;;;;;41.35;27.52;;;;;;;6.58;100.00;103480.66;10482065;28;20045;-81
2023/12/17 01:41:36;;;;;;;48.63;26.58;;;;;;;6.57;100.00;103464.13;10461579;28;20086;-80
2023/12/17 01:46:37;;;;;;;50.47;27.67;;;;;;;6.58;100.00;103471.19;10470181;28;20071;-81
2023/12/17 01:51:37;;;;;;;44.85;27.42;;;;;;;6.60;100.00;103484.34;10460988;28;20074;-81
2023/12/17 01:56:38;;;;;;;50.92;28.45;;;;;;;6.64;100.00;103488.19;10486768;28;20048;-81
2023/12/17 02:01:38;;;;;;;44.85;26.25;;;;;;;6.58;100.00;103478.06;10466026;28;20091;-81
2023/12/17 02:06:39;;;;;;;46.33;26.42;;;;;;;6.58;100.00;103491.06;10471819;28;20170;-82
2023/12/17 02:11:39;;;;;;;54.95;28.50;;;;;;;6.58;100.00;103497.22;10464253;28;20492;-82
2023/12/17 02:16:40;;;;;;;50.25;28.67;;;;;;;6.56;100.00;103490.91;10467439;28;20105;-82
2023/12/17 02:21:40;;;;;;;44.17;25.25;;;;;;;6.61;100.00;103473.16;10471101;28;20556;-82
2023/12/17 02:26:41;;;;;;;48.35;27.65;;;;;;;6.59;100.00;103477.28;10485728;28;20032;-82
2023/12/17 02:31:42;;;;;;;33.60;20.00;;;;;;;6.60;100.00;103472.28;10470713;28;20043;-82
2023/12/17 02:36:42;;;;;;;45.92;24.48;;;;;;;6.58;100.00;103465.03;10481304;28;20476;-82
2023/12/17 02:41:43;;;;;;;48.47;29.27;;;;;;;6.55;100.00;103455.25;10474868;28;20182;-82
2023/12/17 02:46:43;;;;;;;50.35;28.38;;;;;;;6.52;100.00;103456.59;10463664;28;20120;-82
2023/12/17 02:51:44;;;;;;;48.95;27.05;;;;;;;6.49;100.00;103452.00;10478620;28;20064;-81
2023/12/17 02:56:44;;;;;;;45.75;25.58;;;;;;;6.42;100.00;103455.59;10481140;28;20131;-81
2023/12/17 03:01:45;;;;;;;47.50;26.50;;;;;;;6.37;100.00;103461.09;10484362;28;20125;-81
2023/12/17 03:06:46;;;;;;;47.55;27.20;;;;;;;6.32;100.00;103458.94;10480980;28;20127;-81
2023/12/17 03:11:46;;;;;;;48.05;27.92;;;;;;;6.28;100.00;103463.63;10483033;28;20079;-81
2023/12/17 03:16:47;;;;;;;46.95;25.63;;;;;;;6.27;100.00;103456.59;10478462;28;20495;-81
2023/12/17 03:21:47;;;;;;;44.22;25.60;;;;;;;6.23;100.00;103444.94;10449600;28;20511;-82
2023/12/17 03:26:48;;;;;;;49.55;26.10;;;;;;;6.25;100.00;103450.28;10480082;28;20097;-82
2023/12/17 03:31:48;;;;;;;39.78;22.20;;;;;;;6.23;100.00;103441.41;10461477;28;20048;-82
2023/12/17 03:36:49;;;;;;;46.20;27.25;;;;;;;6.19;100.00;103437.56;10442506;28;20091;-82
2023/12/17 03:41:49;;;;;;;42.25;22.15;;;;;;;6.21;100.00;103435.13;10439522;28;20132;-81
2023/12/17 03:46:50;;;;;;;38.35;24.17;;;;;;;6.15;100.00;103420.72;10437756;28;20044;-81
2023/12/17 03:51:50;;;;;;;42.85;25.60;;;;;;;6.10;100.00;103426.19;10437600;28;20041;-81
2023/12/17 03:56:51;;;;;;;48.35;25.92;;;;;;;6.08;100.00;103423.41;10477971;28;20476;-81
2023/12/17 04:01:51;;;;;;;38.63;24.20;;;;;;;6.08;100.00;103427.69;10440890;28;20036;-81
2023/12/17 04:06:52;;;;;;;45.28;26.02;;;;;;;6.09;100.00;103424.34;10478535;28;20120;-81
2023/12/17 04:11:52;;;;;;;49.25;26.92;;;;;;;6.06;100.00;103417.13;10482065;28;20115;-81
2023/12/17 04:16:53;;;;;;;52.15;29.00;;;;;;;6.02;100.00;103418.50;10478157;28;20123;-82
2023/12/17 04:21:53;;;;;;;41.00;23.42;;;;;;;6.02;100.00;103405.50;10480474;28;20064;-81
2023/12/17 04:26:54;;;;;;;56.00;27.90;;;;;;;5.97;100.00;103411.84;10479402;28;20379;-82
2023/12/17 04:31:54;;;;;;;49.63;26.10;;;;;;;5.95;100.00;103402.03;10479308;28;20054;-80
2023/12/17 04:36:59;;;;;;;47.47;26.88;;;;;;;5.91;100.00;103411.19;10467859;28;20441;-81
2023/12/17 04:42:00;;;;;;;46.88;25.75;;;;;;;5.88;100.00;103416.06;10407949;28;20033;-82
2023/12/17 04:47:00;;;;;;;47.83;25.35;;;;;;;5.87;100.00;103417.72;10434982;28;20124;-81
2023/12/17 04:52:01;;;;;;;55.72;27.10;;;;;;;5.84;100.00;103419.06;10408834;28;20132;-81
2023/12/17 04:57:01;;;;;;;45.85;26.15;;;;;;;5.83;100.00;103412.03;10432005;28;20041;-81
2023/12/17 05:02:02;;;;;;;44.63;25.35;;;;;;;5.79;100.00;103397.78;10442794;28;20067;-82
2023/12/17 05:07:02;;;;;;;50.45;28.40;;;;;;;5.81;100.00;103396.25;10445350;28;20134;-81
2023/12/17 05:12:03;;;;;;;41.50;22.90;;;;;;;5.77;100.00;103378.50;10445363;28;20037;-82
2023/12/17 05:17:04;;;;;;;41.72;22.48;;;;;;;5.76;100.00;103381.84;10480130;28;20376;-81
2023/12/17 05:22:04;;;;;;;41.35;24.15;;;;;;;5.76;100.00;103388.75;10483116;28;20118;-84
2023/12/17 05:27:09;;;;;;;39.45;21.15;;;;;;;5.81;100.00;103387.56;10487245;28;20032;-82
2023/12/17 05:32:10;;;;;;;42.10;22.02;;;;;;;5.74;100.00;103385.97;10487426;28;20033;-82
2023/12/17 05:37:11;;;;;;;36.75;24.10;;;;;;;5.73;100.00;103374.66;10478224;28;20483;-83
2023/12/17 05:42:11;;;;;;;40.70;23.20;;;;;;;5.71;100.00;103378.78;10484721;28;20044;-83
2023/12/17 05:47:12;;;;;;;38.15;20.90;;;;;;;5.71;100.00;103378.78;10484553;28;20459;-83
2023/12/17 05:52:13;;;;;;;43.15;25.38;;;;;;;5.64;100.00;103362.34;10451315;28;20099;-82
2023/12/17 05:57:16;;;;;;;36.97;21.65;;;;;;;5.59;100.00;103367.97;10479984;28;20124;-82
2023/12/17 06:02:17;;;;;;;52.05;24.90;;;;;;;5.61;100.00;103372.41;10484727;28;21592;-81
2023/12/17 06:07:17;;;;;;;69.45;36.58;;;;;;;5.61;100.00;103369.81;10485063;28;20060;-80
2023/12/17 06:12:18;;;;;;;211.52;119.40;;;;;;;5.59;100.00;103367.97;10478549;28;20590;-81
2023/12/17 06:17:18;;;;;;;89.10;52.63;;;;;;;5.53;100.00;103376.78;10482182;28;20060;-81
2023/12/17 06:22:19;;;;;;;50.75;25.33;;;;;;;5.51;100.00;103375.69;10466674;28;20123;-82
2023/12/17 06:27:19;;;;;;;42.50;24.30;;;;;;;5.45;100.00;103375.94;10487330;28;20131;-84
2023/12/17 06:32:20;;;;;;;40.95;19.25;;;;;;;5.43;100.00;103380.03;10455545;28;20040;-84
2023/12/17 06:37:20;;;;;;;43.50;22.70;;;;;;;5.40;100.00;103385.84;10476526;28;20167;-84
2023/12/17 06:42:21;;;;;;;42.38;20.15;;;;;;;5.38;100.00;103383.81;10468813;28;20534;-84
2023/12/17 06:47:21;;;;;;;42.33;25.77;;;;;;;5.33;100.00;103382.38;10481301;28;20119;-86
2023/12/17 06:52:25;;;;;;;46.88;24.73;;;;;;;5.32;100.00;103380.53;10479005;28;20136;-83
2023/12/17 06:57:25;;;;;;;46.58;23.40;;;;;;;5.30;100.00;103380.41;10440273;28;20120;-86
2023/12/17 07:02:26;;;;;;;45.00;22.63;;;;;;;5.27;100.00;103388.75;10454080;28;20047;-84
2023/12/17 07:07:26;;;;;;;47.50;23.38;;;;;;;5.21;100.00;103388.06;10482160;28;20140;-84
2023/12/17 07:12:27;;;;;;;49.97;22.55;;;;;;;5.19;100.00;103384.41;10436084;28;20036;-87
2023/12/17 07:17:27;;;;;;;47.50;24.75;;;;;;;5.19;100.00;103397.38;10479881;28;20131;-83
2023/12/17 07:22:28;;;;;;;43.63;22.85;;;;;;;5.15;100.00;103387.41;10475222;28;20119;-83
2023/12/17 07:27:28;;;;;;;46.05;26.75;;;;;;;5.11;100.00;103390.41;10469663;28;20040;-83
2023/12/17 07:32:29;;;;;;;48.40;22.52;;;;;;;5.10;100.00;103391.16;10483003;28;20070;-83
2023/12/17 07:37:29;;;;;;;51.13;22.75;;;;;;;5.07;100.00;103396.97;10480877;28;20111;-82
2023/12/17 07:42:30;;;;;;;57.08;25.52;;;;;;;5.07;100.00;103390.81;10477973;28;20128;-83
2023/12/17 07:47:32;;;;;;;49.90;24.73;;;;;;;5.08;100.00;103404.00;10480163;28;20115;-82
2023/12/17 07:52:33;;;;;;;35.08;19.33;;;;;;;5.08;100.00;103411.78;10447191;28;20052;-83
2023/12/17 07:57:33;;;;;;;28.63;16.70;;;;;;;5.08;100.00;103418.63;10482182;28;20048;-83
2023/12/17 08:02:34;;;;;;;30.08;16.58;;;;;;;5.08;100.00;103414.38;10459743;28;20127;-83
2023/12/17 08:07:36;;;;;;;35.80;17.42;;;;;;;5.07;100.00;103420.31;10474257;28;20124;-83
2023/12/17 08:12:37;;;;;;;24.52;16.30;;;;;;;5.08;100.00;103419.56;10436833;28;20029;-84
2023/12/17 08:17:38;;;;;;;34.15;19.40;;;;;;;5.07;100.00;103414.19;10476586;28;20383;-82
2023/12/17 08:22:38;;;;;;;42.63;21.88;;;;;;;5.05;100.00;103416.63;10478819;28;20036;-83
2023/12/17 08:27:38;;;;;;;31.70;20.00;;;;;;;5.06;100.00;103417.53;10454868;28;20124;-83
2023/12/17 08:32:39;;;;;;;40.78;23.58;;;;;;;5.04;100.00;103416.44;10469781;28;20445;-83
2023/12/17 08:37:39;;;;;;;42.65;21.08;;;;;;;5.05;100.00;103410.50;10467738;28;20068;-83
2023/12/17 08:42:40;;;;;;;37.47;19.92;;;;;;;5.04;100.00;103414.78;10458604;28;20047;-84
2023/12/17 08:47:41;;;;;;;37.47;21.92;;;;;;;5.06;100.00;103420.13;10468812;28;20056;-83
2023/12/17 08:52:43;;;;;;;43.03;23.40;;;;;;;5.07;100.00;103425.50;10458663;28;20067;-83
2023/12/17 08:57:44;;;;;;;39.03;20.98;;;;;;;5.01;100.00;103414.44;10480287;28;20127;-83
2023/12/17 09:02:45;;;;;;;34.97;21.75;;;;;;;4.93;100.00;103420.47;10484437;28;20115;-83
2023/12/17 09:07:45;;;;;;;36.65;20.73;;;;;;;4.95;100.00;103405.97;10470021;28;20383;-83
2023/12/17 09:12:46;;;;;;;41.67;17.52;;;;;;;4.90;100.00;103404.53;10486686;28;20052;-85
2023/12/17 09:17:47;;;;;;;31.30;16.52;;;;;;;4.90;100.00;103402.84;10486590;28;20040;-83
2023/12/17 09:22:47;;;;;;;35.15;19.60;;;;;;;4.88;100.00;103409.56;10450414;28;20040;-83
2023/12/17 09:27:48;;;;;;;29.50;16.92;;;;;;;4.85;100.00;103417.94;10429629;28;20552;-84
2023/12/17 09:32:49;;;;;;;34.85;16.42;;;;;;;4.89;100.00;103402.72;10420671;28;20488;-85
2023/12/17 09:37:50;;;;;;;39.92;19.90;;;;;;;4.86;100.00;103403.25;10438888;28;20370;-81
2023/12/17 09:42:56;;;;;;;30.40;18.23;;;;;;;4.84;100.00;103404.78;10454950;28;20045;-82
2023/12/17 09:47:57;;;;;;;27.38;18.80;;;;;;;4.87;100.00;103407.69;10447591;28;20052;-85
2023/12/17 09:52:58;;;;;;;35.42;17.63;;;;;;;4.88;100.00;103401.75;10450551;28;20048;-85
2023/12/17 09:58:07;;;;;;;28.42;14.93;;;;;;;4.92;100.00;103403.03;10436824;28;20178;-85
2023/12/17 10:03:12;;;;;;;28.33;18.13;;;;;;;4.89;100.00;103400.09;10467907;28;20032;-85
2023/12/17 10:08:14;;;;;;;26.08;16.42;;;;;;;4.88;100.00;103395.66;10451602;28;20496;-83
2023/12/17 10:13:21;;;;;;;27.45;16.73;;;;;;;4.94;100.00;103394.66;10476848;28;20044;-83
2023/12/17 10:18:22;;;;;;;28.35;17.52;;;;;;;4.95;100.00;103374.84;10482788;28;20040;-83
2023/12/17 10:23:22;;;;;;;31.83;15.25;;;;;;;4.90;100.00;103368.22;10494513;28;20169;-85
2023/12/17 10:28:23;;;;;;;24.17;15.30;;;;;;;4.95;100.00;103367.06;10487786;28;20131;-84
2023/12/17 10:33:26;;;;;;;33.70;15.82;;;;;;;5.04;100.00;103373.25;10444556;28;20132;-85
2023/12/17 10:38:26;;;;;;;33.22;18.13;;;;;;;5.09;100.00;103360.78;10482687;28;20040;-85
2023/12/17 10:43:28;;;;;;;32.75;15.93;;;;;;;5.24;100.00;103354.66;10469860;28;20187;-86
2023/12/17 10:48:28;;;;;;;27.33;17.95;;;;;;;5.31;100.00;103339.75;10455956;28;20059;-86
2023/12/17 10:53:29;;;;;;;30.95;18.00;;;;;;;5.52;100.00;103331.69;10464993;28;20033;-85
2023/12/17 10:58:29;;;;;;;32.10;16.95;;;;;;;5.60;100.00;103329.94;10478382;28;20051;-83
2023/12/17 11:03:30;;;;;;;36.13;20.67;;;;;;;5.93;100.00;103316.09;10439390;28;20080;-82
2023/12/17 11:08:31;;;;;;;24.30;16.05;;;;;;;6.06;100.00;103302.72;10424655;28;20931;-84
2023/12/17 11:13:33;;;;;;;27.45;15.30;;;;;;;6.23;100.00;103277.56;10419159;28;20041;-82
2023/12/17 11:18:43;;;;;;;29.70;18.27;;;;;;;6.46;100.00;103266.94;10433449;28;20112;-85
2023/12/17 11:23:49;;;;;;;21.70;14.68;;;;;;;6.82;100.00;103232.44;10437454;28;20035;-88
2023/12/17 11:28:50;;;;;;;25.95;14.70;;;;;;;6.81;100.00;103217.59;10463748;28;20045;-82
2023/12/17 11:33:50;;;;;;;28.17;15.88;;;;;;;6.71;100.00;103205.31;10439696;28;20204;-83
2023/12/17 11:38:51;;;;;;;23.33;12.98;;;;;;;6.64;100.00;103200.25;10481096;28;20545;-82
2023/12/17 11:43:51;;;;;;;23.35;15.68;;;;;;;6.63;100.00;103185.41;10451557;28;20044;-82
2023/12/17 11:48:52;;;;;;;26.65;15.45;;;;;;;6.61;100.00;103177.44;10482254;28;20441;-83
2023/12/17 11:53:52;;;;;;;22.08;15.23;;;;;;;6.65;100.00;103170.84;10480380;28;20572;-82
2023/12/17 11:58:53;;;;;;;31.08;13.20;;;;;;;6.66;100.00;103162.28;10465154;28;20083;-82
2023/12/17 12:03:56;;;;;;;20.17;13.00;;;;;;;6.87;100.00;103154.78;10480164;28;20131;-82
2023/12/17 12:08:59;;;;;;;23.75;12.65;;;;;;;7.02;100.00;103161.50;10463351;28;20044;-83
2023/12/17 12:13:59;;;;;;;25.60;11.00;;;;;;;7.24;100.00;103161.03;10480603;28;20064;-85
2023/12/17 12:19:01;;;;;;;23.52;12.77;;;;;;;7.35;100.00;103164.69;10480179;28;20047;-84
2023/12/17 12:24:04;;;;;;;36.85;13.73;;;;;;;7.38;100.00;103157.19;10480983;28;20032;-85
2023/12/17 12:29:06;;;;;;;19.23;11.05;;;;;;;7.37;100.00;103139.72;10463015;28;20518;-85
2023/12/17 12:34:07;;;;;;;20.02;10.27;;;;;;;7.35;100.00;103121.31;10464261;28;20045;-83
2023/12/17 12:39:07;;;;;;;20.73;9.75;;;;;;;7.29;100.00;103131.13;10479750;28;20131;-84
2023/12/17 12:44:08;;;;;;;18.98;8.55;;;;;;;7.22;100.00;103120.88;10480682;28;20052;-84
2023/12/17 12:49:08;;;;;;;22.10;10.02;;;;;;;7.25;100.00;103113.38;10439076;28;20041;-83
2023/12/17 12:54:09;;;;;;;22.02;9.52;;;;;;;7.36;100.00;103117.03;10426164;28;20114;-82
2023/12/17 12:59:10;;;;;;;16.95;8.60;;;;;;;7.49;100.00;103106.09;10438161;28;20120;-82
2023/12/17 13:04:10;;;;;;;29.30;8.43;;;;;;;7.47;100.00;103086.78;10428129;28;20041;-83
2023/12/17 13:09:11;;;;;;;17.40;7.88;;;;;;;7.47;100.00;103078.97;10467308;28;20060;-80
2023/12/17 13:14:11;;;;;;;15.88;6.93;;;;;;;7.42;100.00;103082.81;10504356;28;20237;-81
2023/12/17 13:19:12;;;;;;;18.08;7.15;;;;;;;7.47;100.00;103077.28;10503343;28;20135;-81
2023/12/17 13:24:13;;;;;;;16.05;6.82;;;;;;;7.33;100.00;103083.75;10476813;28;20044;-82
2023/12/17 13:29:13;;;;;;;21.25;7.03;;;;;;;7.37;100.00;103084.06;10489252;28;20066;-81
2023/12/17 13:34:17;;;;;;;10.93;5.07;;;;;;;7.41;100.00;103079.31;10481185;28;20127;-81
2023/12/17 13:39:17;;;;;;;15.32;7.88;;;;;;;7.52;100.00;103069.91;10505283;28;20045;-81
2023/12/17 13:44:18;;;;;;;16.23;8.13;;;;;;;7.56;100.00;103063.31;10488208;28;20464;-81
2023/12/17 13:49:18;;;;;;;11.50;6.15;;;;;;;7.46;100.00;103066.72;10491388;28;20135;-81
2023/12/17 13:54:19;;;;;;;26.40;11.20;;;;;;;7.46;100.00;103052.00;10489952;28;20178;-81
2023/12/17 13:59:20;;;;;;;11.13;5.13;;;;;;;7.43;100.00;103042.97;10500105;28;20120;-81
2023/12/17 14:04:20;;;;;;;7.05;4.80;;;;;;;7.20;100.00;103037.41;10509421;28;20040;-81
2023/12/17 14:09:22;;;;;;;8.73;4.97;;;;;;;7.11;100.00;103044.31;10502618;28;20050;-81
2023/12/17 14:14:22;;;;;;;14.30;5.38;;;;;;;6.97;100.00;103044.69;10512447;28;20098;-81
2023/12/17 14:19:23;;;;;;;13.35;4.90;;;;;;;6.79;100.00;103043.78;10503820;28;20522;-81
2023/12/17 14:24:24;;;;;;;11.67;5.13;;;;;;;6.67;100.00;103041.81;10499556;28;20455;-82
2023/12/17 14:29:25;;;;;;;12.55;4.15;;;;;;;6.56;100.00;103037.22;10465607;28;20047;-82
2023/12/17 14:34:26;;;;;;;11.15;5.00;;;;;;;6.41;100.00;103037.53;10497498;28;20039;-82
2023/12/17 14:39:28;;;;;;;8.00;3.97;;;;;;;6.29;100.00;103028.53;10507800;28;20123;-82
2023/12/17 14:44:28;;;;;;;13.10;6.32;;;;;;;6.13;100.00;103031.28;10476228;28;20476;-82
2023/12/17 14:49:29;;;;;;;10.30;5.80;;;;;;;6.05;100.00;103030.50;10490177;28;20151;-82
2023/12/17 14:54:29;;;;;;;11.18;5.28;;;;;;;5.84;100.00;103027.53;10447324;28;20124;-82
2023/12/17 14:59:36;;;;;;;8.80;4.97;;;;;;;5.70;100.00;103033.94;10461245;28;20043;-82
2023/12/17 15:04:37;;;;;;;24.90;5.68;;;;;;;5.62;100.00;103042.63;10446194;28;20037;-82
2023/12/17 15:09:37;;;;;;;12.80;5.38;;;;;;;5.59;100.00;103044.91;10491301;28;20381;-81
2023/12/17 15:14:38;;;;;;;9.23;3.88;;;;;;;5.56;100.00;103039.41;10503787;28;20124;-82
2023/12/17 15:19:40;;;;;;;10.10;3.42;;;;;;;5.49;100.00;103034.34;10498252;28;20086;-82
2023/12/17 15:24:41;;;;;;;;;;;;;;;5.29;100.00;103028.91;10499682;28;20063;-80
2023/12/17 15:29:42;;;;;;;14.02;4.70;;;;;;;5.10;100.00;103032.94;10502623;28;19920;-81
2023/12/17 15:34:42;;;;;;;11.27;6.22;;;;;;;5.32;100.00;103030.91;10506991;28;20070;-82
2023/12/17 15:39:43;;;;;;;14.85;3.45;;;;;;;5.25;100.00;103029.34;10495653;28;20079;-82
2023/12/17 15:44:44;;;;;;;8.77;5.43;;;;;;;4.94;100.00;103026.13;10484215;28;20043;-82
2023/12/17 15:49:44;;;;;;;16.27;5.75;;;;;;;4.95;100.00;103027.06;10496128;28;20155;-83
2023/12/17 15:54:44;;;;;;;23.80;7.25;;;;;;;4.98;100.00;103014.41;10486375;28;20124;-81
2023/12/17 15:59:46;;;;;;;19.20;5.22;;;;;;;4.82;100.00;103007.59;10489635;28;20031;-82
2023/12/17 16:04:47;;;;;;;10.82;5.25;;;;;;;4.58;100.00;103000.72;10507703;28;20036;-81
2023/12/17 16:09:47;;;;;;;10.98;5.55;;;;;;;4.55;100.00;103006.53;10500157;28;20056;-82
2023/12/17 16:14:48;;;;;;;12.13;6.25;;;;;;;4.53;100.00;103004.50;10487093;28;20120;-80
2023/12/17 16:19:48;;;;;;;14.23;6.30;;;;;;;4.63;100.00;103011.59;10505844;28;20044;-81
2023/12/17 16:24:49;;;;;;;16.27;7.78;;;;;;;4.77;100.00;103014.00;10485645;28;20123;-81
2023/12/17 16:29:49;;;;;;;20.58;8.82;;;;;;;4.72;100.00;103015.19;10483716;28;20131;-81
2023/12/17 16:34:50;;;;;;;15.38;8.80;;;;;;;4.80;100.00;103008.19;10461971;28;20127;-81
2023/12/17 16:39:50;;;;;;;20.05;8.35;;;;;;;4.82;100.00;103004.09;10497026;28;20147;-81
2023/12/17 16:44:51;;;;;;;19.95;7.25;;;;;;;4.72;100.00;102999.63;10481234;28;20132;-81
2023/12/17 16:49:52;;;;;;;17.92;6.68;;;;;;;4.50;100.00;102993.81;10507784;28;20125;-81
2023/12/17 16:54:52;;;;;;;12.00;6.18;;;;;;;4.50;100.00;102983.44;10498720;28;20170;-81
2023/12/17 16:59:53;;;;;;;17.00;6.80;;;;;;;4.58;100.00;102990.34;10495490;28;20115;-82
2023/12/17 17:04:53;;;;;;;16.73;6.68;;;;;;;4.50;100.00;102994.75;10486923;28;20048;-81
2023/12/17 17:09:54;;;;;;;18.55;7.60;;;;;;;4.43;100.00;103007.81;10495304;28;20050;-80
2023/12/17 17:14:54;;;;;;;14.70;6.63;;;;;;;4.51;100.00;103013.81;10505132;28;20484;-81
2023/12/17 17:19:55;;;;;;;21.65;8.23;;;;;;;4.64;100.00;103013.44;10507997;28;20119;-81
2023/12/17 17:24:55;;;;;;;14.80;6.80;;;;;;;4.63;100.00;103014.22;10493586;28;20499;-81
2023/12/17 17:29:59;;;;;;;19.30;8.10;;;;;;;4.58;100.00;103017.97;10508608;28;20040;-81
2023/12/17 17:34:59;;;;;;;27.00;7.70;;;;;;;4.63;100.00;103022.00;10489068;28;20044;-80
2023/12/17 17:40:00;;;;;;;20.67;7.40;;;;;;;4.70;100.00;103014.09;10505559;28;20108;-80
2023/12/17 17:45:00;;;;;;;21.02;6.60;;;;;;;4.64;100.00;103008.25;10493565;28;20078;-81
2023/12/17 17:50:01;;;;;;;17.35;6.43;;;;;;;4.64;100.00;103001.38;10494666;28;20131;-80
2023/12/17 17:55:01;;;;;;;22.42;6.90;;;;;;;4.44;100.00;102996.69;10505103;28;20056;-80
2023/12/17 18:00:03;;;;;;;21.85;7.82;;;;;;;4.51;100.00;103000.84;10494713;28;20125;-81
2023/12/17 18:05:04;;;;;;;15.55;7.85;;;;;;;4.60;100.00;103007.00;10484272;28;20483;-82
2023/12/17 18:10:05;;;;;;;20.05;7.45;;;;;;;4.47;100.00;103007.38;10514759;28;20044;-81
2023/12/17 18:15:07;;;;;;;17.10;8.32;;;;;;;4.41;100.00;102994.66;10483200;28;20472;-82
2023/12/17 18:20:07;;;;;;;23.20;8.70;;;;;;;4.26;100.00;102988.78;10485054;28;20074;-80
2023/12/17 18:25:09;;;;;;;15.32;7.28;;;;;;;4.34;100.00;102984.41;10502639;28;20043;-81
2023/12/17 18:30:10;;;;;;;22.93;7.80;;;;;;;4.40;100.00;102987.66;10507972;28;20070;-81
2023/12/17 18:35:11;;;;;;;17.10;8.52;;;;;;;4.47;100.00;102984.03;10481079;28;20044;-80
2023/12/17 18:40:11;;;;;;;15.57;8.45;;;;;;;4.42;100.00;102990.41;10502640;28;20048;-81
2023/12/17 18:45:14;;;;;;;20.20;9.68;;;;;;;4.51;100.00;102993.06;10501315;28;20113;-81
2023/12/17 18:50:15;;;;;;;28.05;10.73;;;;;;;4.57;100.00;102982.44;10506965;28;20056;-82
2023/12/17 18:55:15;;;;;;;21.73;11.27;;;;;;;4.43;100.00;102967.97;10501806;28;20115;-79
2023/12/17 19:00:16;;;;;;;15.73;10.38;;;;;;;4.41;100.00;102967.84;10501510;28;20040;-80
2023/12/17 19:05:17;;;;;;;21.15;8.55;;;;;;;4.25;100.00;102967.84;10499784;28;20048;-81
2023/12/17 19:10:18;;;;;;;13.40;8.43;;;;;;;4.28;100.00;102973.38;10511884;28;20072;-80
2023/12/17 19:15:19;;;;;;;22.77;8.02;;;;;;;4.20;100.00;102964.78;10474825;28;20457;-80
2023/12/17 19:20:20;;;;;;;19.25;7.90;;;;;;;4.09;100.00;102954.94;10488475;28;20468;-79
2023/12/17 19:25:20;;;;;;;17.55;6.78;;;;;;;4.04;100.00;102945.75;10497817;28;20052;-80
2023/12/17 19:30:21;;;;;;;24.77;8.20;;;;;;;3.96;100.00;102953.63;10503047;28;20043;-80
2023/12/17 19:35:21;;;;;;;12.57;6.45;;;;;;;3.91;100.00;102949.63;10481100;28;20494;-80
2023/12/17 19:40:22;;;;;;;16.10;8.18;;;;;;;4.02;100.00;102963.72;10506049;28;20044;-80
2023/12/17 19:45:22;;;;;;;13.60;6.68;;;;;;;3.94;100.00;102965.50;10474815;28;20040;-82
2023/12/17 19:50:24;;;;;;;17.02;8.15;;;;;;;3.63;100.00;102961.22;10496091;28;20051;-80
2023/12/17 19:55:25;;;;;;;9.55;4.43;;;;;;;3.52;100.00;102967.81;10489746;28;20047;-80
2023/12/17 20:00:25;;;;;;;14.13;5.65;;;;;;;3.70;100.00;102979.28;10505622;28;20040;-80
2023/12/17 20:05:26;;;;;;;14.48;5.05;;;;;;;3.62;100.00;102968.09;10475874;28;20127;-80
2023/12/17 20:10:26;;;;;;;12.10;6.03;;;;;;;3.73;100.00;102952.81;10506202;28;20484;-80
2023/12/17 20:15:28;;;;;;;15.35;6.72;;;;;;;3.56;100.00;102948.34;10493404;28;20037;-80
2023/12/17 20:20:29;;;;;;;13.98;8.00;;;;;;;3.49;100.00;102954.53;10481073;28;20048;-80
2023/12/17 20:25:30;;;;;;;14.63;5.88;;;;;;;3.30;100.00;102964.53;10498753;28;20036;-80
2023/12/17 20:30:32;;;;;;;12.57;7.10;;;;;;;3.18;100.00;102975.34;10510207;28;20440;-80
2023/12/17 20:35:32;;;;;;;9.85;6.72;;;;;;;2.95;100.00;102985.72;10489483;28;20127;-80
2023/12/17 20:40:33;;;;;;;13.60;7.13;;;;;;;2.78;100.00;102983.81;10499046;28;20045;-80
2023/12/17 20:45:33;;;;;;;13.02;6.32;;;;;;;2.71;100.00;102995.16;10508559;28;20174;-81
2023/12/17 20:50:34;;;;;;;14.93;6.90;;;;;;;2.62;100.00;103000.16;10513975;28;20500;-81
2023/12/17 20:55:34;;;;;;;12.25;7.70;;;;;;;2.45;100.00;103007.66;10512306;28;20036;-81
2023/12/17 21:00:35;;;;;;;16.98;6.85;;;;;;;2.37;100.00;103006.78;10508696;28;20051;-82
2023/12/17 21:05:36;;;;;;;22.67;7.28;;;;;;;2.28;100.00;103009.22;10510152;28;20157;-84
2023/12/17 21:10:36;;;;;;;19.73;7.10;;;;;;;2.21;100.00;103004.09;10479681;28;20048;-81
2023/12/17 21:15:37;;;;;;;14.07;7.07;;;;;;;2.18;100.00;103001.16;10512405;28;20097;-81
2023/12/17 21:20:37;;;;;;;21.35;8.63;;;;;;;2.05;100.00;102991.06;10462411;28;20139;-82
2023/12/17 21:25:38;;;;;;;23.30;8.32;;;;;;;1.98;100.00;103001.44;10495829;28;20041;-79
2023/12/17 21:30:38;;;;;;;15.68;8.15;;;;;;;2.07;100.00;102997.34;10457147;28;20119;-79
2023/12/17 21:35:39;;;;;;;19.92;8.85;;;;;;;2.24;100.00;102994.09;10466616;28;20564;-81
2023/12/17 21:40:40;;;;;;;24.85;9.23;;;;;;;2.00;100.00;103005.13;10475040;28;20159;-81
2023/12/17 21:45:40;;;;;;;16.40;6.28;;;;;;;1.87;100.00;103001.09;10461635;28;20086;-81
2023/12/17 21:50:41;;;;;;;18.92;8.55;;;;;;;1.99;100.00;102996.44;10428659;28;20033;-82
2023/12/17 21:55:42;;;;;;;12.90;7.28;;;;;;;2.17;100.00;102997.66;10436859;28;20051;-82
2023/12/17 22:00:42;;;;;;;14.85;8.57;;;;;;;2.14;100.00;102984.38;10463471;28;20040;-81
2023/12/17 22:05:43;;;;;;;42.97;8.20;;;;;;;2.30;100.00;102988.75;10440688;28;20039;-81
2023/12/17 22:10:43;;;;;;;18.65;6.68;;;;;;;2.34;100.00;102980.59;10443890;28;20037;-81
2023/12/17 22:15:44;;;;;;;14.10;6.10;;;;;;;2.44;100.00;102969.63;10442134;28;20068;-79
2023/12/17 22:20:44;;;;;;;10.07;5.70;;;;;;;2.57;100.00;102962.53;10465535;28;20541;-81
2023/12/17 22:25:45;;;;;;;12.52;6.47;;;;;;;2.50;100.00;102941.91;10490168;28;20124;-83
2023/12/17 22:30:45;;;;;;;20.08;7.32;;;;;;;2.45;100.00;102959.50;10451510;28;20041;-82
2023/12/17 22:35:46;;;;;;;13.70;7.95;;;;;;;2.46;100.00;102958.75;10513242;28;20063;-84